Time;durP1;ratioP1;P1;durP2;ratioP2;P2;SDS_P1;SDS_P2;PMS_P1;PMS_P2;Temp;Humidity;BMP_temperature;BMP_pressure;BME280_temperature;BME280_humidity;BME280_pressure;Samples;Min_cycle;Max_cycle;Signal;HPM_P1;HPM_P2
2022/11/15 00:00:17;;;;;;;159.77;23.47;;;;;;;;;;6198263;28;20017;-78
2022/11/15 00:03:18;;;;;;;104.87;21.30;;;;;;;;;;6180704;28;20109;-78
2022/11/15 00:06:18;;;;;;;100.82;20.13;;;;;;;;;;6198041;28;20050;-78
2022/11/15 00:09:18;;;;;;;102.93;20.23;;;;;;;;;;6198793;28;20054;-78
2022/11/15 00:12:18;;;;;;;152.52;23.73;;;;;;;;;;6180173;28;20496;-78
2022/11/15 00:15:19;;;;;;;156.67;23.60;;;;;;;;;;6198113;28;20026;-78
2022/11/15 00:18:19;;;;;;;68.28;18.60;;;;;;;;;;6198653;28;20022;-78
2022/11/15 00:21:19;;;;;;;137.87;23.37;;;;;;;;;;6191568;28;20332;-78
2022/11/15 00:24:19;;;;;;;119.60;24.63;;;;;;;;;;6192714;28;20265;-78
2022/11/15 00:27:19;;;;;;;101.63;21.50;;;;;;;;;;6197032;28;20036;-79
2022/11/15 00:30:20;;;;;;;142.48;22.52;;;;;;;;;;6198015;28;20010;-78
2022/11/15 00:33:20;;;;;;;181.25;24.88;;;;;;;;;;6197351;28;20030;-78
2022/11/15 00:36:20;;;;;;;150.77;25.87;;;;;;;;;;6197317;28;20022;-79
2022/11/15 00:39:20;;;;;;;112.80;21.70;;;;;;;;;;6179653;28;20065;-78
2022/11/15 00:42:20;;;;;;;146.30;23.50;;;;;;;;;;6197438;28;20041;-78
2022/11/15 00:45:21;;;;;;;162.27;23.88;;;;;;;;;;6200327;28;20530;-78
2022/11/15 00:48:21;;;;;;;175.77;23.93;;;;;;;;;;6202765;28;20022;-78
2022/11/15 00:51:21;;;;;;;141.77;23.45;;;;;;;;;;6202288;28;20022;-78
2022/11/15 00:54:21;;;;;;;131.23;24.73;;;;;;;;;;6202687;28;20383;-78
2022/11/15 00:57:22;;;;;;;164.35;26.02;;;;;;;;;;6195964;28;20058;-78
2022/11/15 01:00:22;;;;;;;110.10;22.10;;;;;;;;;;6202240;28;20010;-78
2022/11/15 01:03:22;;;;;;;136.15;23.92;;;;;;;;;;6201708;28;20281;-78
2022/11/15 01:06:22;;;;;;;104.90;20.20;;;;;;;;;;6200247;28;20053;-78
2022/11/15 01:09:23;;;;;;;130.97;22.47;;;;;;;;;;6184147;28;20351;-78
2022/11/15 01:12:23;;;;;;;114.05;22.35;;;;;;;;;;6201367;28;20305;-78
2022/11/15 01:15:23;;;;;;;119.17;25.23;;;;;;;;;;6183820;28;20386;-78
2022/11/15 01:18:23;;;;;;;141.10;24.20;;;;;;;;;;6200226;28;20022;-78
2022/11/15 01:21:23;;;;;;;151.52;24.80;;;;;;;;;;6202124;28;20023;-78
2022/11/15 01:24:24;;;;;;;99.45;21.35;;;;;;;;;;6181759;28;20258;-78
2022/11/15 01:27:24;;;;;;;120.18;22.23;;;;;;;;;;6201389;28;20682;-78
2022/11/15 01:30:24;;;;;;;104.18;23.17;;;;;;;;;;6202181;28;20073;-77
2022/11/15 01:33:24;;;;;;;98.70;20.27;;;;;;;;;;6178120;28;20050;-77
2022/11/15 01:36:24;;;;;;;106.50;25.83;;;;;;;;;;6200762;28;20474;-77
2022/11/15 01:39:25;;;;;;;124.95;22.35;;;;;;;;;;6200997;28;20382;-77
2022/11/15 01:42:25;;;;;;;96.47;20.27;;;;;;;;;;6200203;28;20026;-77
2022/11/15 01:45:25;;;;;;;133.57;22.97;;;;;;;;;;6201691;28;20025;-78
2022/11/15 01:48:29;;;;;;;143.07;23.30;;;;;;;;;;6200840;28;20019;-77
2022/11/15 01:51:31;;;;;;;147.52;22.83;;;;;;;;;;6198628;28;20051;-77
2022/11/15 01:54:32;;;;;;;121.00;22.05;;;;;;;;;;6183872;28;20029;-77
2022/11/15 01:57:32;;;;;;;119.57;22.02;;;;;;;;;;6182920;28;20026;-77
2022/11/15 02:00:32;;;;;;;133.98;23.42;;;;;;;;;;6200998;28;20014;-76
2022/11/15 02:03:35;;;;;;;124.18;23.67;;;;;;;;;;6183297;28;20285;-77
2022/11/15 02:06:35;;;;;;;103.72;23.60;;;;;;;;;;6175919;28;20129;-76
2022/11/15 02:09:37;;;;;;;126.43;23.60;;;;;;;;;;6183472;28;20040;-76
2022/11/15 02:12:38;;;;;;;119.35;23.88;;;;;;;;;;6180177;28;20073;-76
2022/11/15 02:15:43;;;;;;;111.93;22.05;;;;;;;;;;6179858;28;20065;-76
2022/11/15 02:18:59;;;;;;;126.25;22.15;;;;;;;;;;6182690;28;20486;-76
2022/11/15 02:22:18;;;;;;;185.25;25.00;;;;;;;;;;6200173;28;20121;-76
2022/11/15 02:25:21;;;;;;;153.65;23.85;;;;;;;;;;6200044;28;20038;-76
2022/11/15 02:28:41;;;;;;;144.18;22.73;;;;;;;;;;6198911;28;20017;-76
2022/11/15 02:31:44;;;;;;;166.07;23.02;;;;;;;;;;6199973;28;20064;-76
2022/11/15 02:34:44;;;;;;;93.93;20.88;;;;;;;;;;6199837;28;20073;-76
2022/11/15 02:37:50;;;;;;;121.65;21.98;;;;;;;;;;6199447;28;20034;-76
2022/11/15 02:40:57;;;;;;;136.13;20.33;;;;;;;;;;6181650;28;20018;-76
2022/11/15 02:44:04;;;;;;;121.13;20.30;;;;;;;;;;6196524;28;20030;-76
2022/11/15 02:47:13;;;;;;;133.25;17.40;;;;;;;;;;6199221;28;20026;-76
2022/11/15 02:50:16;;;;;;;112.90;19.60;;;;;;;;;;6177919;28;20014;-76
2022/11/15 02:53:16;;;;;;;114.68;18.35;;;;;;;;;;6198515;28;20097;-76
2022/11/15 02:56:16;;;;;;;114.60;20.20;;;;;;;;;;6181372;28;20099;-76
2022/11/15 02:59:30;;;;;;;110.60;17.48;;;;;;;;;;6200226;28;20776;-76
2022/11/15 03:02:42;;;;;;;125.78;19.98;;;;;;;;;;6198914;28;20022;-76
2022/11/15 03:05:42;;;;;;;;;;;;;;;;;;6199377;28;20417;-76
2022/11/15 03:08:43;;;;;;;103.15;18.17;;;;;;;;;;6198342;28;20299;-76
2022/11/15 03:11:48;;;;;;;97.28;17.27;;;;;;;;;;6180855;28;20037;-77
2022/11/15 03:14:58;;;;;;;108.13;17.83;;;;;;;;;;6182187;28;20042;-76
2022/11/15 03:18:04;;;;;;;130.18;18.92;;;;;;;;;;6181895;28;20041;-76
2022/11/15 03:21:05;;;;;;;120.43;18.85;;;;;;;;;;6199182;28;20037;-76
2022/11/15 03:24:07;;;;;;;148.68;19.40;;;;;;;;;;6199452;28;20026;-76
2022/11/15 03:27:09;;;;;;;118.68;19.48;;;;;;;;;;6198645;28;20054;-76
2022/11/15 03:30:10;;;;;;;87.32;17.25;;;;;;;;;;6198285;28;20073;-76
2022/11/15 03:33:11;;;;;;;120.13;18.95;;;;;;;;;;6199003;28;20022;-76
2022/11/15 03:36:11;;;;;;;128.80;16.23;;;;;;;;;;6181359;28;20423;-77
2022/11/15 03:39:12;;;;;;;136.07;19.20;;;;;;;;;;6197745;28;20018;-76
2022/11/15 03:42:21;;;;;;;146.85;24.13;;;;;;;;;;6180317;28;20030;-76
2022/11/15 03:45:23;;;;;;;118.97;18.25;;;;;;;;;;6199345;28;20034;-76
2022/11/15 03:48:25;;;;;;;98.47;16.95;;;;;;;;;;6198012;28;20014;-76
2022/11/15 03:51:25;;;;;;;100.45;18.17;;;;;;;;;;6197662;28;20050;-76
2022/11/15 03:54:26;;;;;;;106.05;19.73;;;;;;;;;;6198460;28;20022;-76
2022/11/15 03:57:26;;;;;;;141.57;21.60;;;;;;;;;;6198035;28;20383;-76
2022/11/15 04:00:26;;;;;;;151.67;21.90;;;;;;;;;;6195274;28;20390;-76
2022/11/15 04:03:27;;;;;;;152.68;22.27;;;;;;;;;;6197951;28;20375;-76
2022/11/15 04:06:27;;;;;;;144.37;20.57;;;;;;;;;;6197452;28;20124;-75
2022/11/15 04:09:27;;;;;;;156.25;22.27;;;;;;;;;;6180020;28;20309;-76
2022/11/15 04:12:31;;;;;;;114.26;19.76;;;;;;;;;;6197423;28;20451;-76
2022/11/15 04:15:31;;;;;;;107.63;20.30;;;;;;;;;;6198037;28;20014;-76
2022/11/15 04:18:31;;;;;;;143.90;21.08;;;;;;;;;;6196337;28;20399;-76
2022/11/15 04:24:50;;;;;;;117.63;20.80;;;;;;;;;;6197874;28;20026;-75
2022/11/15 04:27:50;;;;;;;162.50;25.42;;;;;;;;;;6196983;28;20046;-75
2022/11/15 04:30:51;;;;;;;132.27;22.35;;;;;;;;;;6196555;28;20388;-75
2022/11/15 04:33:51;;;;;;;170.43;22.98;;;;;;;;;;6196636;28;20261;-76
2022/11/15 04:40:10;;;;;;;139.77;22.38;;;;;;;;;;6195505;28;20034;-76
2022/11/15 04:43:10;;;;;;;112.32;20.63;;;;;;;;;;6195072;28;20038;-76
2022/11/15 04:46:11;;;;;;;129.93;20.83;;;;;;;;;;6197616;28;20021;-75
2022/11/15 04:49:11;;;;;;;104.15;23.42;;;;;;;;;;6195261;28;20153;-75
2022/11/15 04:52:11;;;;;;;114.72;21.35;;;;;;;;;;6197172;28;20022;-75
2022/11/15 04:55:11;;;;;;;123.30;25.83;;;;;;;;;;6196136;28;20085;-75
2022/11/15 04:58:11;;;;;;;135.98;24.38;;;;;;;;;;6197076;28;20034;-75
2022/11/15 05:01:14;;;;;;;139.50;24.70;;;;;;;;;;6196469;28;20482;-76
2022/11/15 05:04:20;;;;;;;135.32;24.27;;;;;;;;;;6197334;28;20030;-75
2022/11/15 05:07:20;;;;;;;221.05;48.50;;;;;;;;;;6193848;28;20130;-76
2022/11/15 05:10:20;;;;;;;200.73;53.20;;;;;;;;;;6179883;28;20406;-75
2022/11/15 05:13:21;;;;;;;181.63;39.83;;;;;;;;;;6197305;28;20265;-75
2022/11/15 05:16:21;;;;;;;146.07;23.77;;;;;;;;;;6196627;28;20030;-75
2022/11/15 05:19:22;;;;;;;216.65;51.75;;;;;;;;;;6196562;28;20284;-74
2022/11/15 05:22:22;;;;;;;136.75;28.35;;;;;;;;;;6196811;28;20019;-72
2022/11/15 05:25:23;;;;;;;100.00;23.60;;;;;;;;;;6193660;28;20131;-72
2022/11/15 05:28:23;;;;;;;151.88;31.45;;;;;;;;;;6178680;28;20011;-73
2022/11/15 05:31:24;;;;;;;98.47;27.23;;;;;;;;;;6199368;28;20367;-73
2022/11/15 05:34:25;;;;;;;111.87;24.60;;;;;;;;;;6183750;28;20024;-72
2022/11/15 05:37:25;;;;;;;137.30;22.23;;;;;;;;;;6202202;28;20111;-72
2022/11/15 05:40:26;;;;;;;189.98;43.58;;;;;;;;;;6201899;28;20014;-72
2022/11/15 05:43:27;;;;;;;104.23;23.70;;;;;;;;;;6200576;28;20363;-73
2022/11/15 05:46:27;;;;;;;97.20;20.07;;;;;;;;;;6197852;28;20026;-73
2022/11/15 05:49:30;;;;;;;146.13;34.40;;;;;;;;;;6199165;28;20026;-73
2022/11/15 05:52:33;;;;;;;126.85;30.55;;;;;;;;;;6199497;28;20054;-73
2022/11/15 05:55:34;;;;;;;129.27;30.60;;;;;;;;;;6179916;28;20327;-73
2022/11/15 05:58:34;;;;;;;113.63;34.67;;;;;;;;;;6199419;28;20470;-73
2022/11/15 06:01:34;;;;;;;105.50;21.55;;;;;;;;;;6184823;28;20032;-72
2022/11/15 06:04:35;;;;;;;102.85;20.10;;;;;;;;;;6199474;28;21120;-73
2022/11/15 06:07:35;;;;;;;121.47;18.27;;;;;;;;;;6200378;28;20030;-72
2022/11/15 06:10:35;;;;;;;92.18;16.73;;;;;;;;;;6198212;28;20014;-73
2022/11/15 06:13:35;;;;;;;96.75;15.38;;;;;;;;;;6199852;28;20026;-73
2022/11/15 06:16:36;;;;;;;82.70;13.27;;;;;;;;;;6197669;28;20481;-73
2022/11/15 06:19:36;;;;;;;70.60;14.63;;;;;;;;;;6181842;28;20165;-72
2022/11/15 06:22:36;;;;;;;57.97;14.27;;;;;;;;;;6200050;28;20022;-72
2022/11/15 06:25:36;;;;;;;30.95;10.48;;;;;;;;;;6199041;28;20019;-73
2022/11/15 06:28:36;;;;;;;78.32;16.48;;;;;;;;;;6199031;28;20033;-72
2022/11/15 06:31:37;;;;;;;70.10;16.07;;;;;;;;;;6178871;28;20450;-73
2022/11/15 06:34:37;;;;;;;74.30;16.27;;;;;;;;;;6202172;28;20018;-72
2022/11/15 06:37:37;;;;;;;80.50;16.67;;;;;;;;;;6199025;28;20033;-72
2022/11/15 06:40:38;;;;;;;50.25;13.45;;;;;;;;;;6199962;28;20148;-73
2022/11/15 06:43:39;;;;;;;41.58;13.65;;;;;;;;;;6197680;28;20030;-73
2022/11/15 06:46:39;;;;;;;57.97;14.73;;;;;;;;;;6195280;28;20030;-73
2022/11/15 06:49:39;;;;;;;55.05;13.43;;;;;;;;;;6197819;28;20086;-73
2022/11/15 06:52:39;;;;;;;65.10;13.07;;;;;;;;;;6181102;28;20398;-73
2022/11/15 06:55:39;;;;;;;55.70;12.77;;;;;;;;;;6194509;28;20026;-73
2022/11/15 06:58:40;;;;;;;66.75;15.20;;;;;;;;;;6199824;28;20045;-73
2022/11/15 07:01:40;;;;;;;72.83;14.97;;;;;;;;;;6196769;28;20029;-73
2022/11/15 07:04:40;;;;;;;66.78;12.88;;;;;;;;;;6196314;28;20069;-73
2022/11/15 07:07:40;;;;;;;55.40;13.43;;;;;;;;;;6195514;28;20072;-72
2022/11/15 07:10:40;;;;;;;69.93;13.63;;;;;;;;;;6178639;28;20028;-72
2022/11/15 07:13:41;;;;;;;61.20;14.60;;;;;;;;;;6196973;28;20277;-73
2022/11/15 07:16:41;;;;;;;38.50;11.63;;;;;;;;;;6196149;28;20277;-72
2022/11/15 07:19:41;;;;;;;29.13;10.77;;;;;;;;;;6197065;28;20044;-73
2022/11/15 07:22:41;;;;;;;48.67;11.85;;;;;;;;;;6179656;28;20268;-72
2022/11/15 07:25:42;;;;;;;76.40;14.27;;;;;;;;;;6197449;28;20029;-73
2022/11/15 07:28:42;;;;;;;47.10;13.43;;;;;;;;;;6179003;28;20495;-72
2022/11/15 07:31:42;;;;;;;105.82;18.48;;;;;;;;;;6195418;28;20034;-73
2022/11/15 07:34:42;;;;;;;92.40;24.00;;;;;;;;;;6180130;28;20479;-72
2022/11/15 07:37:42;;;;;;;52.78;22.80;;;;;;;;;;6198366;28;20496;-72
2022/11/15 07:40:42;;;;;;;81.35;25.52;;;;;;;;;;6196947;28;20265;-73
2022/11/15 07:43:43;;;;;;;86.10;25.08;;;;;;;;;;6179820;28;20360;-73
2022/11/15 07:46:43;;;;;;;56.05;20.40;;;;;;;;;;6178716;28;20387;-72
2022/11/15 07:49:43;;;;;;;127.80;23.83;;;;;;;;;;6179475;28;20022;-72
2022/11/15 07:52:43;;;;;;;66.87;19.83;;;;;;;;;;6197112;28;20494;-73
2022/11/15 07:55:44;;;;;;;74.20;20.77;;;;;;;;;;6180118;28;20045;-73
2022/11/15 07:58:45;;;;;;;81.93;18.77;;;;;;;;;;6180574;28;20092;-73
2022/11/15 08:01:45;;;;;;;55.05;19.10;;;;;;;;;;6197157;28;20347;-72
2022/11/15 08:04:45;;;;;;;71.53;20.90;;;;;;;;;;6189766;28;20082;-72
2022/11/15 08:07:46;;;;;;;70.72;23.13;;;;;;;;;;6180259;28;20257;-73
2022/11/15 08:10:46;;;;;;;66.15;25.73;;;;;;;;;;6195498;28;20015;-73
2022/11/15 08:13:46;;;;;;;93.93;26.30;;;;;;;;;;6178128;28;20634;-73
2022/11/15 08:16:46;;;;;;;66.33;24.13;;;;;;;;;;6195144;28;20332;-72
2022/11/15 08:19:47;;;;;;;57.15;27.15;;;;;;;;;;6194243;28;20188;-73
2022/11/15 08:22:47;;;;;;;45.55;21.08;;;;;;;;;;6194973;28;20443;-72
2022/11/15 08:25:48;;;;;;;49.08;20.80;;;;;;;;;;6195980;28;20472;-72
2022/11/15 08:28:48;;;;;;;92.73;25.83;;;;;;;;;;6197790;28;20033;-72
2022/11/15 08:31:48;;;;;;;46.43;22.10;;;;;;;;;;6196295;28;20073;-72
2022/11/15 08:34:48;;;;;;;55.20;22.97;;;;;;;;;;6179190;28;20048;-72
2022/11/15 08:37:49;;;;;;;47.60;24.23;;;;;;;;;;6175977;28;20285;-73
2022/11/15 08:40:54;;;;;;;53.70;25.17;;;;;;;;;;6196069;28;20109;-72
2022/11/15 08:43:54;;;;;;;65.03;25.60;;;;;;;;;;6192350;28;20034;-72
2022/11/15 08:46:54;;;;;;;41.60;22.48;;;;;;;;;;6178408;28;20046;-73
2022/11/15 08:49:55;;;;;;;39.17;21.63;;;;;;;;;;6194688;28;20150;-74
2022/11/15 08:52:55;;;;;;;38.50;24.57;;;;;;;;;;6195755;28;20447;-73
2022/11/15 08:55:55;;;;;;;43.93;25.97;;;;;;;;;;6178739;28;20026;-73
2022/11/15 08:58:55;;;;;;;46.27;26.93;;;;;;;;;;6196390;28;20022;-73
2022/11/15 09:01:55;;;;;;;49.47;29.38;;;;;;;;;;6195951;28;20135;-73
2022/11/15 09:04:56;;;;;;;49.38;31.55;;;;;;;;;;6194865;28;20042;-73
2022/11/15 09:07:56;;;;;;;51.58;29.92;;;;;;;;;;6182822;28;20262;-74
2022/11/15 09:10:56;;;;;;;37.90;26.20;;;;;;;;;;6186236;28;20037;-74
2022/11/15 09:13:56;;;;;;;32.55;22.92;;;;;;;;;;6199799;28;20038;-74
2022/11/15 09:16:58;;;;;;;33.90;21.20;;;;;;;;;;6200561;28;20037;-74
2022/11/15 09:19:58;;;;;;;30.48;21.02;;;;;;;;;;6183796;28;20029;-74
2022/11/15 09:22:59;;;;;;;30.40;20.93;;;;;;;;;;6200073;28;20084;-74
2022/11/15 09:26:01;;;;;;;30.48;21.10;;;;;;;;;;6181327;28;20109;-74
2022/11/15 09:29:01;;;;;;;31.85;22.15;;;;;;;;;;6200596;28;20032;-74
2022/11/15 09:32:01;;;;;;;28.80;19.67;;;;;;;;;;6199159;28;20019;-74
2022/11/15 09:35:02;;;;;;;29.20;18.47;;;;;;;;;;6181411;28;20294;-74
2022/11/15 09:38:03;;;;;;;27.20;19.80;;;;;;;;;;6200969;28;20047;-75
2022/11/15 09:41:09;;;;;;;27.57;19.27;;;;;;;;;;6199954;28;20126;-74
2022/11/15 09:44:12;;;;;;;29.98;19.35;;;;;;;;;;6182527;28;20022;-73
2022/11/15 09:47:32;;;;;;;27.90;19.65;;;;;;;;;;6181049;28;20041;-73
2022/11/15 09:50:35;;;;;;;31.65;21.88;;;;;;;;;;6181902;28;20073;-73
2022/11/15 09:53:56;;;;;;;34.10;22.52;;;;;;;;;;6200210;28;20494;-74
2022/11/15 09:57:03;;;;;;;35.72;25.00;;;;;;;;;;6182762;28;20347;-74
2022/11/15 10:00:09;;;;;;;37.35;25.67;;;;;;;;;;6197701;28;20077;-74
2022/11/15 10:03:14;;;;;;;36.42;22.88;;;;;;;;;;6196999;28;20034;-74
2022/11/15 10:06:21;;;;;;;38.45;26.13;;;;;;;;;;6199019;28;20042;-74
2022/11/15 10:09:42;;;;;;;32.20;23.23;;;;;;;;;;6199483;28;20137;-74
2022/11/15 10:12:45;;;;;;;33.00;23.20;;;;;;;;;;6181881;28;20042;-73
2022/11/15 10:15:47;;;;;;;29.45;21.80;;;;;;;;;;6196944;28;20037;-73
2022/11/15 10:18:54;;;;;;;29.45;21.40;;;;;;;;;;6194353;28;20064;-73
2022/11/15 10:21:54;;;;;;;27.80;19.52;;;;;;;;;;6197121;28;20110;-74
2022/11/15 10:25:13;;;;;;;31.55;21.52;;;;;;;;;;6182396;28;20004;-74
2022/11/15 10:28:19;;;;;;;33.40;23.40;;;;;;;;;;6195322;28;20388;-74
2022/11/15 10:31:27;;;;;;;35.67;21.33;;;;;;;;;;6199146;28;20033;-74
2022/11/15 10:34:27;;;;;;;32.03;22.30;;;;;;;;;;6198946;28;20549;-74
2022/11/15 10:37:30;;;;;;;32.90;21.00;;;;;;;;;;6199863;28;20018;-74
2022/11/15 10:40:31;;;;;;;31.83;21.27;;;;;;;;;;6198234;28;20034;-75
2022/11/15 10:43:31;;;;;;;27.63;17.98;;;;;;;;;;6198842;28;20026;-74
2022/11/15 10:46:31;;;;;;;27.30;18.50;;;;;;;;;;6198585;28;20491;-74
2022/11/15 10:49:32;;;;;;;32.83;18.90;;;;;;;;;;6198453;28;20073;-74
2022/11/15 10:52:34;;;;;;;27.85;16.20;;;;;;;;;;6199346;28;20034;-75
2022/11/15 10:55:35;;;;;;;34.40;19.65;;;;;;;;;;6178912;28;20034;-75
2022/11/15 10:58:37;;;;;;;28.40;17.83;;;;;;;;;;6181037;28;20037;-74
2022/11/15 11:01:45;;;;;;;30.13;17.23;;;;;;;;;;6198522;28;20414;-74
2022/11/15 11:04:51;;;;;;;27.42;16.77;;;;;;;;;;6198720;28;20014;-73
2022/11/15 11:07:57;;;;;;;27.95;15.63;;;;;;;;;;6198637;28;20022;-73
2022/11/15 11:10:59;;;;;;;30.33;17.73;;;;;;;;;;6197654;28;20030;-73
2022/11/15 11:14:11;;;;;;;28.95;18.05;;;;;;;;;;6198460;28;20026;-74
2022/11/15 11:17:32;;;;;;;28.27;18.52;;;;;;;;;;6197319;28;20018;-74
2022/11/15 11:20:41;;;;;;;30.38;18.00;;;;;;;;;;6197637;28;20066;-74
2022/11/15 11:24:03;;;;;;;28.55;17.42;;;;;;;;;;6197869;28;20511;-74
2022/11/15 11:27:12;;;;;;;28.65;17.67;;;;;;;;;;6157834;28;20018;-74
2022/11/15 11:30:21;;;;;;;37.45;19.80;;;;;;;;;;6197738;28;20101;-74
2022/11/15 11:33:24;;;;;;;28.30;19.88;;;;;;;;;;6197586;28;20498;-74
2022/11/15 11:36:34;;;;;;;33.15;20.95;;;;;;;;;;6197720;28;20046;-74
2022/11/15 11:39:41;;;;;;;35.28;19.95;;;;;;;;;;6197266;28;20014;-74
2022/11/15 11:42:41;;;;;;;34.22;19.92;;;;;;;;;;6196545;28;20041;-74
2022/11/15 11:45:56;;;;;;;31.63;19.90;;;;;;;;;;6197237;28;20452;-74
2022/11/15 11:48:59;;;;;;;29.67;20.15;;;;;;;;;;6192708;28;20506;-73
2022/11/15 11:52:07;;;;;;;36.85;22.65;;;;;;;;;;6194961;28;20121;-74
2022/11/15 11:55:20;;;;;;;36.78;22.67;;;;;;;;;;6179091;28;20026;-74
2022/11/15 11:58:33;;;;;;;35.22;21.77;;;;;;;;;;6195080;28;20026;-74
2022/11/15 12:01:35;;;;;;;32.80;21.95;;;;;;;;;;6197328;28;20386;-74
2022/11/15 12:04:37;;;;;;;40.10;23.65;;;;;;;;;;6197661;28;20093;-74
2022/11/15 12:07:38;;;;;;;36.25;22.10;;;;;;;;;;6190307;28;20399;-73
2022/11/15 12:10:39;;;;;;;34.35;21.20;;;;;;;;;;6196153;28;20022;-73
2022/11/15 12:13:40;;;;;;;37.40;22.43;;;;;;;;;;6196140;28;20470;-73
2022/11/15 12:16:42;;;;;;;31.50;23.37;;;;;;;;;;6196624;28;20018;-73
2022/11/15 12:19:42;;;;;;;36.78;20.67;;;;;;;;;;6197951;28;20014;-73
2022/11/15 12:22:54;;;;;;;31.77;20.87;;;;;;;;;;6178111;28;20386;-74
2022/11/15 12:25:54;;;;;;;;;;;;;;;;;;6192455;28;20021;-74
2022/11/15 12:28:58;;;;;;;31.70;20.23;;;;;;;;;;6194039;28;19917;-74
2022/11/15 12:31:59;;;;;;;43.20;23.70;;;;;;;;;;6192278;28;20031;-74
2022/11/15 12:34:59;;;;;;;;;;;;;;;;;;6196320;28;20022;-74
2022/11/15 12:38:00;;;;;;;39.95;23.10;;;;;;;;;;6195275;28;19969;-74
2022/11/15 12:41:14;;;;;;;44.73;26.03;;;;;;;;;;6192656;28;20022;-74
2022/11/15 12:44:43;;;;;;;40.45;24.88;;;;;;;;;;6177752;28;20486;-74
2022/11/15 12:47:43;;;;;;;35.88;23.40;;;;;;;;;;6130149;28;20513;-74
2022/11/15 12:50:50;;;;;;;38.40;23.37;;;;;;;;;;6195989;28;20030;-74
2022/11/15 12:53:50;;;;;;;34.63;23.20;;;;;;;;;;6189033;28;20048;-74
2022/11/15 12:57:02;;;;;;;37.13;26.67;;;;;;;;;;6194353;28;20029;-75
2022/11/15 13:00:03;;;;;;;36.65;24.05;;;;;;;;;;6193370;28;20033;-74
2022/11/15 13:03:18;;;;;;;36.43;26.50;;;;;;;;;;6196322;28;22952;-73
2022/11/15 13:06:41;;;;;;;39.10;25.23;;;;;;;;;;6196189;28;20653;-75
2022/11/15 13:09:41;;;;;;;41.20;26.02;;;;;;;;;;6182288;28;20010;-75
2022/11/15 13:12:44;;;;;;;38.07;24.47;;;;;;;;;;6196848;28;20026;-75
2022/11/15 13:15:54;;;;;;;38.33;24.17;;;;;;;;;;6179045;28;20034;-74
2022/11/15 13:18:54;;;;;;;34.00;23.33;;;;;;;;;;6197220;28;20021;-75
2022/11/15 13:25:32;;;;;;;36.90;23.75;;;;;;;;;;6193154;28;20390;-75
2022/11/15 13:28:35;;;;;;;39.65;23.45;;;;;;;;;;6196517;28;20041;-75
2022/11/15 13:31:37;;;;;;;35.97;25.10;;;;;;;;;;6195360;28;20402;-75
2022/11/15 13:34:37;;;;;;;47.75;26.42;;;;;;;;;;6177668;28;20022;-73
2022/11/15 13:37:38;;;;;;;44.40;26.43;;;;;;;;;;6178653;28;20037;-74
2022/11/15 13:40:38;;;;;;;52.93;28.83;;;;;;;;;;6195977;28;20033;-74
2022/11/15 13:43:38;;;;;;;38.78;25.50;;;;;;;;;;6195281;28;20023;-74
2022/11/15 13:46:38;;;;;;;47.33;31.33;;;;;;;;;;6194472;28;20506;-75
2022/11/15 13:49:39;;;;;;;45.80;28.00;;;;;;;;;;6194664;28;20024;-75
2022/11/15 13:52:42;;;;;;;47.10;28.17;;;;;;;;;;6200128;28;20019;-75
2022/11/15 13:55:43;;;;;;;39.53;27.35;;;;;;;;;;6198326;28;20034;-74
2022/11/15 13:58:43;;;;;;;49.03;31.57;;;;;;;;;;6199840;28;20060;-74
2022/11/15 14:01:43;;;;;;;46.87;30.47;;;;;;;;;;6198307;28;20026;-75
2022/11/15 14:05:05;;;;;;;48.27;31.47;;;;;;;;;;6181136;28;20123;-75
2022/11/15 14:08:11;;;;;;;42.03;28.27;;;;;;;;;;6179742;28;20026;-74
2022/11/15 14:11:20;;;;;;;47.33;29.70;;;;;;;;;;6192062;28;20027;-74
2022/11/15 14:14:22;;;;;;;48.08;31.63;;;;;;;;;;6179847;28;20056;-74
2022/11/15 14:17:28;;;;;;;52.33;32.30;;;;;;;;;;6194188;28;20041;-74
2022/11/15 14:20:31;;;;;;;58.30;33.08;;;;;;;;;;6174333;28;20022;-73
2022/11/15 14:23:31;;;;;;;47.97;30.50;;;;;;;;;;6196748;28;20318;-74
2022/11/15 14:26:33;;;;;;;52.40;33.75;;;;;;;;;;6198878;28;20018;-74
2022/11/15 14:29:33;;;;;;;53.15;32.42;;;;;;;;;;6196269;28;20019;-75
2022/11/15 14:32:40;;;;;;;59.47;36.65;;;;;;;;;;6196737;28;20022;-75
2022/11/15 14:35:41;;;;;;;58.97;36.97;;;;;;;;;;6198312;28;20486;-75
2022/11/15 14:38:42;;;;;;;54.00;38.17;;;;;;;;;;6197542;28;20066;-75
2022/11/15 14:41:43;;;;;;;59.42;39.47;;;;;;;;;;6198700;28;20162;-74
2022/11/15 14:44:43;;;;;;;66.87;42.13;;;;;;;;;;6199309;28;20022;-75
2022/11/15 14:47:44;;;;;;;65.47;40.53;;;;;;;;;;6197381;28;20037;-75
2022/11/15 14:50:44;;;;;;;62.83;41.90;;;;;;;;;;6198075;28;20101;-74
2022/11/15 14:53:44;;;;;;;74.60;43.70;;;;;;;;;;6197495;28;20024;-74
2022/11/15 14:56:45;;;;;;;66.57;41.77;;;;;;;;;;6199724;28;20057;-74
2022/11/15 14:59:45;;;;;;;65.10;42.05;;;;;;;;;;6199164;28;20016;-74
2022/11/15 15:02:46;;;;;;;74.43;46.45;;;;;;;;;;6198059;28;20026;-74
2022/11/15 15:05:46;;;;;;;78.77;49.40;;;;;;;;;;6199398;28;20042;-74
2022/11/15 15:08:48;;;;;;;65.27;38.33;;;;;;;;;;6198058;28;20037;-75
2022/11/15 15:11:48;;;;;;;65.63;37.17;;;;;;;;;;6199228;28;20097;-75
2022/11/15 15:14:49;;;;;;;59.75;36.08;;;;;;;;;;6199588;28;20019;-73
2022/11/15 15:17:49;;;;;;;75.40;43.45;;;;;;;;;;6191550;28;20030;-75
2022/11/15 15:20:59;;;;;;;80.77;50.13;;;;;;;;;;6199376;28;20057;-75
2022/11/15 15:23:59;;;;;;;84.85;48.35;;;;;;;;;;6200022;28;20030;-75
2022/11/15 15:27:00;;;;;;;87.70;50.50;;;;;;;;;;6198191;28;20142;-75
2022/11/15 15:30:00;;;;;;;84.60;51.67;;;;;;;;;;6193360;28;20029;-75
2022/11/15 15:33:00;;;;;;;81.34;47.44;;;;;;;;;;6176033;28;20025;-75
2022/11/15 15:36:00;;;;;;;74.67;44.00;;;;;;;;;;6194280;28;20124;-75
2022/11/15 15:39:00;;;;;;;87.72;55.90;;;;;;;;;;6196367;28;20026;-74
2022/11/15 15:42:00;;;;;;;76.35;47.25;;;;;;;;;;6196242;28;20030;-74
2022/11/15 15:45:01;;;;;;;67.97;40.37;;;;;;;;;;6195100;28;20280;-75
2022/11/15 15:48:01;;;;;;;65.55;38.10;;;;;;;;;;6197106;28;20443;-75
2022/11/15 15:51:01;;;;;;;65.60;37.50;;;;;;;;;;6195297;28;20089;-75
2022/11/15 15:54:01;;;;;;;58.28;35.76;;;;;;;;;;6177837;28;20030;-75
2022/11/15 15:57:01;;;;;;;57.40;35.73;;;;;;;;;;6195622;28;20458;-75
2022/11/15 16:00:03;;;;;;;55.83;37.03;;;;;;;;;;6196377;28;20069;-75
2022/11/15 16:03:03;;;;;;;61.90;38.00;;;;;;;;;;6196424;28;20007;-75
2022/11/15 16:06:04;;;;;;;66.25;38.55;;;;;;;;;;6195058;28;20460;-75
2022/11/15 16:09:05;;;;;;;62.80;36.35;;;;;;;;;;6192488;28;20037;-75
2022/11/15 16:12:05;;;;;;;60.67;35.43;;;;;;;;;;6192253;28;20498;-75
2022/11/15 16:15:06;;;;;;;52.17;32.23;;;;;;;;;;6193855;28;20068;-75
2022/11/15 16:18:12;;;;;;;51.83;34.40;;;;;;;;;;6194871;28;20015;-75
2022/11/15 16:21:12;;;;;;;56.33;33.05;;;;;;;;;;6195906;28;20146;-75
2022/11/15 16:24:13;;;;;;;53.72;32.92;;;;;;;;;;6179900;28;20595;-75
2022/11/15 16:27:14;;;;;;;56.13;32.90;;;;;;;;;;6197469;28;20618;-75
2022/11/15 16:30:15;;;;;;;57.85;34.35;;;;;;;;;;6196876;28;20022;-75
2022/11/15 16:33:17;;;;;;;56.97;35.93;;;;;;;;;;6196730;28;20089;-75
2022/11/15 16:36:17;;;;;;;;;;;;;;;;;;6197097;28;20097;-75
2022/11/15 16:39:18;;;;;;;64.65;37.45;;;;;;;;;;6196471;28;19916;-75
2022/11/15 16:42:18;;;;;;;109.43;57.78;;;;;;;;;;6195717;28;20014;-75
2022/11/15 16:45:18;;;;;;;61.50;37.58;;;;;;;;;;6180052;28;20037;-75
2022/11/15 16:48:24;;;;;;;58.40;34.70;;;;;;;;;;6195277;28;20042;-74
2022/11/15 16:51:24;;;;;;;56.33;36.42;;;;;;;;;;6178530;28;20450;-74
2022/11/15 16:54:24;;;;;;;97.25;58.22;;;;;;;;;;6179493;28;20022;-75
2022/11/15 16:57:24;;;;;;;98.13;55.55;;;;;;;;;;6180160;28;20022;-74
2022/11/15 17:00:25;;;;;;;84.75;52.25;;;;;;;;;;6196806;28;20018;-74
2022/11/15 17:03:25;;;;;;;94.33;57.67;;;;;;;;;;6195622;28;20026;-74
2022/11/15 17:06:25;;;;;;;82.20;53.00;;;;;;;;;;6197038;28;20042;-74
2022/11/15 17:09:25;;;;;;;72.73;44.87;;;;;;;;;;6179286;28;20046;-74
2022/11/15 17:12:26;;;;;;;73.20;39.17;;;;;;;;;;6195546;28;20509;-74
2022/11/15 17:15:26;;;;;;;136.05;84.63;;;;;;;;;;6197206;28;20014;-76
2022/11/15 17:18:26;;;;;;;78.63;51.93;;;;;;;;;;6196750;28;20019;-75
2022/11/15 17:21:27;;;;;;;66.03;40.40;;;;;;;;;;6195782;28;20025;-75
2022/11/15 17:24:27;;;;;;;64.67;39.47;;;;;;;;;;6195530;28;20033;-75
2022/11/15 17:27:27;;;;;;;58.65;34.45;;;;;;;;;;6182510;28;20020;-75
2022/11/15 17:30:27;;;;;;;67.60;43.50;;;;;;;;;;6181228;28;20026;-75
2022/11/15 17:33:28;;;;;;;62.92;36.28;;;;;;;;;;6200963;28;20022;-75
2022/11/15 17:36:28;;;;;;;64.07;39.30;;;;;;;;;;6200407;28;20026;-75
2022/11/15 17:39:28;;;;;;;65.57;40.27;;;;;;;;;;6199211;28;20214;-75
2022/11/15 17:42:28;;;;;;;63.45;41.97;;;;;;;;;;6180516;28;20036;-75
2022/11/15 17:45:29;;;;;;;58.50;36.50;;;;;;;;;;6201153;28;20029;-75